Grande Italia — IBTF — position and weather

sailwx.info

Track history (hours):
 
Tides and Currents Weather Stations Pressure Air Temp Water Temp Dewpoint Dewpoint Depression Visibility Wind Speed Wind Dir Waves Ship Positions

Grande Italia

Last reported at 2014-Dec-17 21:25 UTC. Time now 2014-Dec-19 13:00 UTC.
Position N 39°45' W 009°50'.

Length 177 m; draft 8.1 m.

Type: Ship. MMSI: 247039300.

Date/timePositionNaut miles runAvg speedWind from/ knotsBaromVisibWave heightAir tempDewpointWater temp
2014-Dec-17 21:25N 39°45' W 009°50'2815.2
2014-Dec-17 19:33N 39°17' W 009°51'1514.9
2014-Dec-17 18:33N 39°02' W 009°52'1515.0
2014-Dec-17 17:33N 38°47' W 009°52'1514.6
2014-Dec-17 16:33N 38°33' W 009°49'1514.7
2014-Dec-17 15:33N 38°18' W 009°45'1514.7
2014-Dec-17 14:33N 38°04' W 009°41'1514.4
2014-Dec-17 13:33N 37°50' W 009°37'1614.7
2014-Dec-17 12:29N 37°35' W 009°32'7013.8
2014-Dec-17 07:25N 36°37' W 008°41'15516.6
2014-Dec-16 22:05N 35°57' W 005°35'815.6
2014-Dec-16 21:33N 35°60' W 005°26'1615.5
2014-Dec-16 20:33N 36°04' W 005°07'19615.0
2014-Dec-16 07:31N 37°05' W 001°16'1515.4
2014-Dec-16 06:33N 37°15' W 001°01'1515.1
2014-Dec-16 05:33N 37°25' W 000°47'1515.2
2014-Dec-16 04:33N 37°35' W 000°33'1515.2
2014-Dec-16 03:32N 37°48' W 000°22'1514.9
2014-Dec-16 02:33N 38°00' W 000°12'8512.1
2014-Dec-15 19:33N 39°25' W 000°16'2 1.9
2014-Dec-15 18:28N 39°26' W 000°18'0 0.0
2014-Dec-15 17:28N 39°26' W 000°18'0 0.0
2014-Dec-15 16:31N 39°26' W 000°18'0 0.0
2014-Dec-15 15:28N 39°26' W 000°18'0 0.0
2014-Dec-15 14:31N 39°26' W 000°18'0 0.0
2014-Dec-15 13:31N 39°26' W 000°18'0 0.0
2014-Dec-15 12:31N 39°26' W 000°18'0 0.0
2014-Dec-15 11:31N 39°26' W 000°18'0 0.0
2014-Dec-15 10:31N 39°26' W 000°18'0 0.0
2014-Dec-15 09:31N 39°26' W 000°18'0 0.0
2014-Dec-15 08:31N 39°26' W 000°18'0 0.0
2014-Dec-15 07:31N 39°26' W 000°18'0 0.0
2014-Dec-15 06:31N 39°26' W 000°18'0 0.0
2014-Dec-15 05:31N 39°26' W 000°18'0 0.0
2014-Dec-15 04:31N 39°26' W 000°18'0 0.0
2014-Dec-15 03:31N 39°26' W 000°18'0 0.0
2014-Dec-15 02:31N 39°26' W 000°18'0 0.0
2014-Dec-15 01:31N 39°26' W 000°18'0 0.0
2014-Dec-15 00:31N 39°26' W 000°18'0 0.0
2014-Dec-14 23:31N 39°26' W 000°18'0 0.0
2014-Dec-14 22:31N 39°26' W 000°18'0 0.0
2014-Dec-14 21:31N 39°26' W 000°18'0 0.0
2014-Dec-14 20:28N 39°26' W 000°18'0 0.0
2014-Dec-14 19:31N 39°26' W 000°18'0 0.0
2014-Dec-14 18:31N 39°26' W 000°18'0 0.0
2014-Dec-14 17:31N 39°26' W 000°18'0 0.0
2014-Dec-14 16:31N 39°26' W 000°18'0 0.0
2014-Dec-14 15:31N 39°26' W 000°18'0 0.0
2014-Dec-14 14:31N 39°26' W 000°18'0 0.0
2014-Dec-14 13:31N 39°26' W 000°18'0 0.0
2014-Dec-14 12:31N 39°26' W 000°18'0 0.0
2014-Dec-14 11:33N 39°26' W 000°18'8 8.0
2014-Dec-14 10:33N 39°27' W 000°08'4615.5
2014-Dec-14 07:33N 40°01' E 000°33'1515.4
2014-Dec-14 06:33N 40°11' E 000°48'1515.3
2014-Dec-14 05:33N 40°21' E 001°04'1615.7
2014-Dec-14 04:33N 40°32' E 001°19'1616.6
2014-Dec-14 03:33N 40°43' E 001°35'1615.9
2014-Dec-14 02:33N 40°56' E 001°48'1515.3
2014-Dec-14 01:33N 41°08' E 002°01'1413.9
2014-Dec-14 00:33N 41°20' E 002°10'1 0.7
2014-Dec-13 23:08N 41°20' E 002°09'0 0.0
2014-Dec-13 22:32N 41°20' E 002°09'0 0.0
2014-Dec-13 18:20N 41°20' E 002°09'0 0.0
2014-Dec-13 15:32N 41°20' E 002°09'0 0.0
2014-Dec-13 12:29N 41°20' E 002°09'0 0.0
2014-Dec-13 11:08N 41°20' E 002°09'0 0.0
2014-Dec-13 10:30N 41°20' E 002°09'8 6.4
2014-Dec-13 09:12N 41°20' E 002°20'1313.7
2014-Dec-13 08:16N 41°27' E 002°34'11514.3
2014-Dec-13 00:13N 42°48' E 004°23'2814.5
2014-Dec-12 22:16N 43°10' E 004°48'1014.2
2014-Dec-12 21:34N 43°18' E 004°57'7 7.3
2014-Dec-12 20:33N 43°24' E 004°51'0 0.2
2014-Dec-12 19:33N 43°24' E 004°51'0 0.0
2014-Dec-12 18:33N 43°24' E 004°51'0 0.0
2014-Dec-12 17:33N 43°24' E 004°51'0 0.0
2014-Dec-12 16:33N 43°24' E 004°51'0 0.0
2014-Dec-12 15:33N 43°24' E 004°51'0 0.0
2014-Dec-12 14:33N 43°24' E 004°51'0 0.0
2014-Dec-12 13:33N 43°24' E 004°51'0 0.0
2014-Dec-12 12:33N 43°24' E 004°51'0 0.0
2014-Dec-12 11:33N 43°24' E 004°51'0 0.0
2014-Dec-12 10:33N 43°24' E 004°51'0 0.0
2014-Dec-12 09:33N 43°24' E 004°51'4 3.8
2014-Dec-12 08:34N 43°23' E 004°56'1312.6
2014-Dec-12 07:34N 43°12' E 005°03'1514.7
2014-Dec-12 06:33N 43°06' E 005°22'1414.3
2014-Dec-12 05:33N 42°60' E 005°40'1414.1
2014-Dec-12 04:33N 42°55' E 005°58'1615.1
2014-Dec-12 03:30N 42°52' E 006°19'1415.2
2014-Dec-12 02:33N 42°56' E 006°38'1615.8
2014-Dec-12 01:33N 43°05' E 006°56'1615.9
2014-Dec-12 00:33N 43°15' E 007°13'1815.9
2014-Dec-11 23:26N 43°26' E 007°31'1615.9
2014-Dec-11 22:25N 43°36' E 007°49'3015.5
2014-Dec-11 20:28N 43°55' E 008°21'1415.4
2014-Dec-11 19:33N 44°08' E 008°29'1010.3
2014-Dec-11 18:33N 44°19' E 008°30'0 0.0
2014-Dec-11 17:33N 44°19' E 008°30'0 0.0
2014-Dec-11 16:33N 44°19' E 008°30'0 0.0
2014-Dec-11 15:33N 44°19' E 008°30'0 0.0
2014-Dec-11 14:07N 44°19' E 008°30'0 0.0
2014-Dec-11 13:25N 44°19' E 008°30'1 0.8
2014-Dec-11 12:33N 44°19' E 008°31'1312.9
2014-Dec-11 11:33N 44°10' E 008°44'1515.0
2014-Dec-11 10:33N 43°60' E 008°59'1515.1
2014-Dec-11 09:33N 43°49' E 009°15'1514.7
2014-Dec-11 08:33N 43°44' E 009°34'1515.3
2014-Dec-11 07:33N 43°36' E 009°51'1413.9
2014-Dec-11 06:34N 43°30' E 010°09'9 8.6
2014-Dec-11 05:32N 43°35' E 010°19'0 0.0
2014-Dec-11 04:32N 43°35' E 010°19'0 0.0
2014-Dec-11 03:32N 43°35' E 010°19'0 0.0
2014-Dec-11 02:32N 43°35' E 010°19'0 0.0
2014-Dec-11 01:32N 43°35' E 010°19'0 0.0
2014-Dec-11 00:32N 43°35' E 010°19'0 0.0
2014-Dec-10 23:32N 43°35' E 010°19'0 0.0
2014-Dec-10 22:32N 43°35' E 010°19'0 0.0
2014-Dec-10 21:32N 43°35' E 010°19'0 0.0
2014-Dec-10 20:32N 43°35' E 010°19'0 0.0
2014-Dec-10 19:32N 43°35' E 010°19'1 0.7
2014-Dec-10 18:33N 43°34' E 010°18'9 9.5
2014-Dec-10 17:33N 43°25' E 010°15'1514.7
2014-Dec-10 16:33N 43°11' E 010°19'3114.9
2014-Dec-10 14:30N 42°44' E 010°38'15515.2
2014-Dec-10 04:20N 41°01' E 013°14'1215.6
2014-Dec-10 03:33N 40°54' E 013°27'1514.8
2014-Dec-10 02:34N 40°42' E 013°39'1515.2
2014-Dec-10 01:33N 40°35' E 013°56'1515.0
2014-Dec-10 00:33N 40°30' E 014°16'1514.9
2014-Dec-09 23:33N 40°35' E 014°34'8 0.3
2014-Dec-08 18:13N 40°35' E 014°45'1014.8
2014-Dec-08 17:33N 40°25' E 014°44'13214.5
2014-Dec-08 08:28N 38°21' E 015°42'1111.5
2014-Dec-08 07:33N 38°11' E 015°37'1414.4
2014-Dec-08 06:33N 37°57' E 015°37'  
Track history (hours):
 
Tides and Currents Weather Stations Pressure Air Temp Water Temp Dewpoint Dewpoint Depression Visibility Wind Speed Wind Dir Waves Ship Positions

Grande Italia

Last reported at 2014-Dec-17 21:25 UTC. Time now 2014-Dec-19 13:00 UTC.
Position N 39°45' W 009°50'.

Length 177 m; draft 8.1 m.

Type: Ship. MMSI: 247039300.

Date/timePositionNaut miles runAvg speedWind from/ knotsBaromVisibWave heightAir tempDewpointWater temp
2014-Dec-17 21:25N 39°45' W 009°50'2815.2
2014-Dec-17 19:33N 39°17' W 009°51'1514.9
2014-Dec-17 18:33N 39°02' W 009°52'1515.0
2014-Dec-17 17:33N 38°47' W 009°52'1514.6
2014-Dec-17 16:33N 38°33' W 009°49'1514.7
2014-Dec-17 15:33N 38°18' W 009°45'1514.7
2014-Dec-17 14:33N 38°04' W 009°41'1514.4
2014-Dec-17 13:33N 37°50' W 009°37'1614.7
2014-Dec-17 12:29N 37°35' W 009°32'7013.8
2014-Dec-17 07:25N 36°37' W 008°41'15516.6
2014-Dec-16 22:05N 35°57' W 005°35'815.6
2014-Dec-16 21:33N 35°60' W 005°26'1615.5
2014-Dec-16 20:33N 36°04' W 005°07'19615.0
2014-Dec-16 07:31N 37°05' W 001°16'1515.4
2014-Dec-16 06:33N 37°15' W 001°01'1515.1
2014-Dec-16 05:33N 37°25' W 000°47'1515.2
2014-Dec-16 04:33N 37°35' W 000°33'1515.2
2014-Dec-16 03:32N 37°48' W 000°22'1514.9
2014-Dec-16 02:33N 38°00' W 000°12'8512.1
2014-Dec-15 19:33N 39°25' W 000°16'2 1.9
2014-Dec-15 18:28N 39°26' W 000°18'0 0.0
2014-Dec-15 17:28N 39°26' W 000°18'0 0.0
2014-Dec-15 16:31N 39°26' W 000°18'0 0.0
2014-Dec-15 15:28N 39°26' W 000°18'0 0.0
2014-Dec-15 14:31N 39°26' W 000°18'0 0.0
2014-Dec-15 13:31N 39°26' W 000°18'0 0.0
2014-Dec-15 12:31N 39°26' W 000°18'0 0.0
2014-Dec-15 11:31N 39°26' W 000°18'0 0.0
2014-Dec-15 10:31N 39°26' W 000°18'0 0.0
2014-Dec-15 09:31N 39°26' W 000°18'0 0.0
2014-Dec-15 08:31N 39°26' W 000°18'0 0.0
2014-Dec-15 07:31N 39°26' W 000°18'0 0.0
2014-Dec-15 06:31N 39°26' W 000°18'0 0.0
2014-Dec-15 05:31N 39°26' W 000°18'0 0.0
2014-Dec-15 04:31N 39°26' W 000°18'0 0.0
2014-Dec-15 03:31N 39°26' W 000°18'0 0.0
2014-Dec-15 02:31N 39°26' W 000°18'0 0.0
2014-Dec-15 01:31N 39°26' W 000°18'0 0.0
2014-Dec-15 00:31N 39°26' W 000°18'0 0.0
2014-Dec-14 23:31N 39°26' W 000°18'0 0.0
2014-Dec-14 22:31N 39°26' W 000°18'0 0.0
2014-Dec-14 21:31N 39°26' W 000°18'0 0.0
2014-Dec-14 20:28N 39°26' W 000°18'0 0.0
2014-Dec-14 19:31N 39°26' W 000°18'0 0.0
2014-Dec-14 18:31N 39°26' W 000°18'0 0.0
2014-Dec-14 17:31N 39°26' W 000°18'0 0.0
2014-Dec-14 16:31N 39°26' W 000°18'0 0.0
2014-Dec-14 15:31N 39°26' W 000°18'0 0.0
2014-Dec-14 14:31N 39°26' W 000°18'0 0.0
2014-Dec-14 13:31N 39°26' W 000°18'0 0.0
2014-Dec-14 12:31N 39°26' W 000°18'0 0.0
2014-Dec-14 11:33N 39°26' W 000°18'8 8.0
2014-Dec-14 10:33N 39°27' W 000°08'4615.5
2014-Dec-14 07:33N 40°01' E 000°33'1515.4
2014-Dec-14 06:33N 40°11' E 000°48'1515.3
2014-Dec-14 05:33N 40°21' E 001°04'1615.7
2014-Dec-14 04:33N 40°32' E 001°19'1616.6
2014-Dec-14 03:33N 40°43' E 001°35'1615.9
2014-Dec-14 02:33N 40°56' E 001°48'1515.3
2014-Dec-14 01:33N 41°08' E 002°01'1413.9
2014-Dec-14 00:33N 41°20' E 002°10'1 0.7
2014-Dec-13 23:08N 41°20' E 002°09'0 0.0
2014-Dec-13 22:32N 41°20' E 002°09'0 0.0
2014-Dec-13 18:20N 41°20' E 002°09'0 0.0
2014-Dec-13 15:32N 41°20' E 002°09'0 0.0
2014-Dec-13 12:29N 41°20' E 002°09'0 0.0
2014-Dec-13 11:08N 41°20' E 002°09'0 0.0
2014-Dec-13 10:30N 41°20' E 002°09'8 6.4
2014-Dec-13 09:12N 41°20' E 002°20'1313.7
2014-Dec-13 08:16N 41°27' E 002°34'11514.3
2014-Dec-13 00:13N 42°48' E 004°23'2814.5
2014-Dec-12 22:16N 43°10' E 004°48'1014.2
2014-Dec-12 21:34N 43°18' E 004°57'7 7.3
2014-Dec-12 20:33N 43°24' E 004°51'0 0.2
2014-Dec-12 19:33N 43°24' E 004°51'0 0.0
2014-Dec-12 18:33N 43°24' E 004°51'0 0.0
2014-Dec-12 17:33N 43°24' E 004°51'0 0.0
2014-Dec-12 16:33N 43°24' E 004°51'0 0.0
2014-Dec-12 15:33N 43°24' E 004°51'0 0.0
2014-Dec-12 14:33N 43°24' E 004°51'0 0.0
2014-Dec-12 13:33N 43°24' E 004°51'0 0.0
2014-Dec-12 12:33N 43°24' E 004°51'0 0.0
2014-Dec-12 11:33N 43°24' E 004°51'0 0.0
2014-Dec-12 10:33N 43°24' E 004°51'0 0.0
2014-Dec-12 09:33N 43°24' E 004°51'4 3.8
2014-Dec-12 08:34N 43°23' E 004°56'1312.6
2014-Dec-12 07:34N 43°12' E 005°03'1514.7
2014-Dec-12 06:33N 43°06' E 005°22'1414.3
2014-Dec-12 05:33N 42°60' E 005°40'1414.1
2014-Dec-12 04:33N 42°55' E 005°58'1615.1
2014-Dec-12 03:30N 42°52' E 006°19'1415.2
2014-Dec-12 02:33N 42°56' E 006°38'1615.8
2014-Dec-12 01:33N 43°05' E 006°56'1615.9
2014-Dec-12 00:33N 43°15' E 007°13'1815.9
2014-Dec-11 23:26N 43°26' E 007°31'1615.9
2014-Dec-11 22:25N 43°36' E 007°49'3015.5
2014-Dec-11 20:28N 43°55' E 008°21'1415.4
2014-Dec-11 19:33N 44°08' E 008°29'1010.3
2014-Dec-11 18:33N 44°19' E 008°30'0 0.0
2014-Dec-11 17:33N 44°19' E 008°30'0 0.0
2014-Dec-11 16:33N 44°19' E 008°30'0 0.0
2014-Dec-11 15:33N 44°19' E 008°30'0 0.0
2014-Dec-11 14:07N 44°19' E 008°30'0 0.0
2014-Dec-11 13:25N 44°19' E 008°30'1 0.8
2014-Dec-11 12:33N 44°19' E 008°31'1312.9
2014-Dec-11 11:33N 44°10' E 008°44'1515.0
2014-Dec-11 10:33N 43°60' E 008°59'1515.1
2014-Dec-11 09:33N 43°49' E 009°15'1514.7
2014-Dec-11 08:33N 43°44' E 009°34'1515.3
2014-Dec-11 07:33N 43°36' E 009°51'1413.9
2014-Dec-11 06:34N 43°30' E 010°09'9 8.6
2014-Dec-11 05:32N 43°35' E 010°19'0 0.0
2014-Dec-11 04:32N 43°35' E 010°19'0 0.0
2014-Dec-11 03:32N 43°35' E 010°19'0 0.0
2014-Dec-11 02:32N 43°35' E 010°19'0 0.0
2014-Dec-11 01:32N 43°35' E 010°19'0 0.0
2014-Dec-11 00:32N 43°35' E 010°19'0 0.0
2014-Dec-10 23:32N 43°35' E 010°19'0 0.0
2014-Dec-10 22:32N 43°35' E 010°19'0 0.0
2014-Dec-10 21:32N 43°35' E 010°19'0 0.0
2014-Dec-10 20:32N 43°35' E 010°19'0 0.0
2014-Dec-10 19:32N 43°35' E 010°19'1 0.7
2014-Dec-10 18:33N 43°34' E 010°18'9 9.5
2014-Dec-10 17:33N 43°25' E 010°15'1514.7
2014-Dec-10 16:33N 43°11' E 010°19'3114.9
2014-Dec-10 14:30N 42°44' E 010°38'15515.2
2014-Dec-10 04:20N 41°01' E 013°14'1215.6
2014-Dec-10 03:33N 40°54' E 013°27'1514.8
2014-Dec-10 02:34N 40°42' E 013°39'1515.2
2014-Dec-10 01:33N 40°35' E 013°56'1515.0
2014-Dec-10 00:33N 40°30' E 014°16'1514.9
2014-Dec-09 23:33N 40°35' E 014°34'8 0.3
2014-Dec-08 18:13N 40°35' E 014°45'1014.8
2014-Dec-08 17:33N 40°25' E 014°44'13214.5
2014-Dec-08 08:28N 38°21' E 015°42'1111.5
2014-Dec-08 07:33N 38°11' E 015°37'1414.4
2014-Dec-08 06:33N 37°57' E 015°37'  

Dump ship's entire track history